sensor_id;sensor_type;location;lat;lon;timestamp;P1;durP1;ratioP1;P2;durP2;ratioP2
42186;SDS011;27858;51.414;0.018;2024-02-14T00:00:45;21.77;;;5.85;;
42186;SDS011;27858;51.414;0.018;2024-02-14T00:03:13;21.70;;;5.38;;
42186;SDS011;27858;51.414;0.018;2024-02-14T00:05:40;24.90;;;5.40;;
42186;SDS011;27858;51.414;0.018;2024-02-14T00:08:07;28.65;;;5.88;;
42186;SDS011;27858;51.414;0.018;2024-02-14T00:10:34;18.35;;;5.68;;
42186;SDS011;27858;51.414;0.018;2024-02-14T00:13:01;19.35;;;5.60;;
42186;SDS011;27858;51.414;0.018;2024-02-14T00:15:28;19.02;;;3.75;;
42186;SDS011;27858;51.414;0.018;2024-02-14T00:17:55;25.65;;;5.45;;
42186;SDS011;27858;51.414;0.018;2024-02-14T00:20:22;18.27;;;4.90;;
42186;SDS011;27858;51.414;0.018;2024-02-14T00:22:51;14.15;;;4.57;;
42186;SDS011;27858;51.414;0.018;2024-02-14T00:25:18;12.20;;;3.88;;
42186;SDS011;27858;51.414;0.018;2024-02-14T00:27:46;13.20;;;4.43;;
42186;SDS011;27858;51.414;0.018;2024-02-14T00:30:13;18.33;;;4.55;;
42186;SDS011;27858;51.414;0.018;2024-02-14T00:32:40;12.40;;;3.63;;
42186;SDS011;27858;51.414;0.018;2024-02-14T00:35:07;11.57;;;3.47;;
42186;SDS011;27858;51.414;0.018;2024-02-14T00:37:34;11.95;;;4.45;;
42186;SDS011;27858;51.414;0.018;2024-02-14T00:40:01;10.95;;;3.75;;
42186;SDS011;27858;51.414;0.018;2024-02-14T00:42:28;22.35;;;4.75;;
42186;SDS011;27858;51.414;0.018;2024-02-14T00:44:55;17.30;;;3.85;;
42186;SDS011;27858;51.414;0.018;2024-02-14T00:47:22;8.10;;;3.40;;
42186;SDS011;27858;51.414;0.018;2024-02-14T00:49:49;9.40;;;2.60;;
42186;SDS011;27858;51.414;0.018;2024-02-14T00:52:16;16.45;;;3.08;;
42186;SDS011;27858;51.414;0.018;2024-02-14T00:54:43;12.82;;;3.88;;
42186;SDS011;27858;51.414;0.018;2024-02-14T00:57:10;12.40;;;3.53;;
42186;SDS011;27858;51.414;0.018;2024-02-14T00:59:37;9.50;;;2.95;;
42186;SDS011;27858;51.414;0.018;2024-02-14T01:02:05;11.35;;;3.47;;
42186;SDS011;27858;51.414;0.018;2024-02-14T01:04:32;13.63;;;4.82;;
42186;SDS011;27858;51.414;0.018;2024-02-14T01:06:58;15.88;;;3.92;;
42186;SDS011;27858;51.414;0.018;2024-02-14T01:09:25;10.43;;;2.72;;
42186;SDS011;27858;51.414;0.018;2024-02-14T01:11:52;11.45;;;2.97;;
42186;SDS011;27858;51.414;0.018;2024-02-14T01:14:19;10.05;;;2.65;;
42186;SDS011;27858;51.414;0.018;2024-02-14T01:16:48;11.68;;;2.67;;
42186;SDS011;27858;51.414;0.018;2024-02-14T01:19:14;7.85;;;2.53;;
42186;SDS011;27858;51.414;0.018;2024-02-14T01:21:42;6.90;;;3.58;;
42186;SDS011;27858;51.414;0.018;2024-02-14T01:24:08;8.07;;;2.75;;
42186;SDS011;27858;51.414;0.018;2024-02-14T01:26:35;11.23;;;2.10;;
42186;SDS011;27858;51.414;0.018;2024-02-14T01:29:02;8.70;;;2.60;;
42186;SDS011;27858;51.414;0.018;2024-02-14T01:31:32;12.88;;;2.45;;
42186;SDS011;27858;51.414;0.018;2024-02-14T01:34:00;6.30;;;2.08;;
42186;SDS011;27858;51.414;0.018;2024-02-14T01:36:28;12.30;;;2.75;;
42186;SDS011;27858;51.414;0.018;2024-02-14T01:38:55;6.40;;;2.00;;
42186;SDS011;27858;51.414;0.018;2024-02-14T01:41:22;7.10;;;2.22;;
42186;SDS011;27858;51.414;0.018;2024-02-14T01:43:49;9.32;;;2.67;;
42186;SDS011;27858;51.414;0.018;2024-02-14T01:46:16;8.55;;;2.97;;
42186;SDS011;27858;51.414;0.018;2024-02-14T01:48:44;13.68;;;2.35;;
42186;SDS011;27858;51.414;0.018;2024-02-14T01:51:11;13.65;;;3.05;;
42186;SDS011;27858;51.414;0.018;2024-02-14T01:53:39;3.97;;;2.00;;
42186;SDS011;27858;51.414;0.018;2024-02-14T01:56:07;6.28;;;2.15;;
42186;SDS011;27858;51.414;0.018;2024-02-14T01:58:36;12.27;;;3.13;;
42186;SDS011;27858;51.414;0.018;2024-02-14T02:01:04;7.15;;;1.90;;
42186;SDS011;27858;51.414;0.018;2024-02-14T02:03:30;6.32;;;1.80;;
42186;SDS011;27858;51.414;0.018;2024-02-14T02:06:02;12.07;;;2.47;;
42186;SDS011;27858;51.414;0.018;2024-02-14T02:08:29;17.75;;;2.33;;
42186;SDS011;27858;51.414;0.018;2024-02-14T02:10:56;7.47;;;2.90;;
42186;SDS011;27858;51.414;0.018;2024-02-14T02:13:23;11.50;;;2.08;;
42186;SDS011;27858;51.414;0.018;2024-02-14T02:15:54;9.70;;;3.28;;
42186;SDS011;27858;51.414;0.018;2024-02-14T02:18:22;5.50;;;2.35;;
42186;SDS011;27858;51.414;0.018;2024-02-14T02:20:49;7.18;;;2.13;;
42186;SDS011;27858;51.414;0.018;2024-02-14T02:23:16;6.65;;;2.10;;
42186;SDS011;27858;51.414;0.018;2024-02-14T02:25:43;7.35;;;1.85;;
42186;SDS011;27858;51.414;0.018;2024-02-14T02:28:10;3.92;;;1.38;;
42186;SDS011;27858;51.414;0.018;2024-02-14T02:30:37;4.75;;;1.95;;
42186;SDS011;27858;51.414;0.018;2024-02-14T02:33:04;3.13;;;1.60;;
42186;SDS011;27858;51.414;0.018;2024-02-14T02:35:33;3.67;;;1.40;;
42186;SDS011;27858;51.414;0.018;2024-02-14T02:38:00;5.38;;;1.55;;
42186;SDS011;27858;51.414;0.018;2024-02-14T02:40:27;6.47;;;1.40;;
42186;SDS011;27858;51.414;0.018;2024-02-14T02:42:54;4.88;;;1.35;;
42186;SDS011;27858;51.414;0.018;2024-02-14T02:45:21;2.33;;;0.90;;
42186;SDS011;27858;51.414;0.018;2024-02-14T02:47:48;3.83;;;0.93;;
42186;SDS011;27858;51.414;0.018;2024-02-14T02:50:19;2.45;;;1.20;;
42186;SDS011;27858;51.414;0.018;2024-02-14T02:52:46;4.88;;;1.73;;
42186;SDS011;27858;51.414;0.018;2024-02-14T02:55:13;3.53;;;1.70;;
42186;SDS011;27858;51.414;0.018;2024-02-14T02:57:43;7.03;;;1.20;;
42186;SDS011;27858;51.414;0.018;2024-02-14T03:00:11;6.43;;;1.52;;
42186;SDS011;27858;51.414;0.018;2024-02-14T03:02:39;3.25;;;1.83;;
42186;SDS011;27858;51.414;0.018;2024-02-14T03:05:15;1.05;;;0.82;;
42186;SDS011;27858;51.414;0.018;2024-02-14T03:07:46;2.20;;;1.05;;
42186;SDS011;27858;51.414;0.018;2024-02-14T03:10:14;4.18;;;1.73;;
42186;SDS011;27858;51.414;0.018;2024-02-14T03:12:44;2.78;;;0.75;;
42186;SDS011;27858;51.414;0.018;2024-02-14T03:15:15;5.05;;;0.95;;
42186;SDS011;27858;51.414;0.018;2024-02-14T03:17:42;3.35;;;1.08;;
42186;SDS011;27858;51.414;0.018;2024-02-14T03:20:10;3.03;;;0.95;;
42186;SDS011;27858;51.414;0.018;2024-02-14T03:22:43;2.13;;;1.02;;
42186;SDS011;27858;51.414;0.018;2024-02-14T03:25:12;2.45;;;0.98;;
42186;SDS011;27858;51.414;0.018;2024-02-14T03:27:43;2.40;;;0.85;;
42186;SDS011;27858;51.414;0.018;2024-02-14T03:30:14;1.65;;;0.50;;
42186;SDS011;27858;51.414;0.018;2024-02-14T03:32:43;1.50;;;0.90;;
42186;SDS011;27858;51.414;0.018;2024-02-14T03:35:10;1.58;;;0.70;;
42186;SDS011;27858;51.414;0.018;2024-02-14T03:37:42;1.70;;;0.40;;
42186;SDS011;27858;51.414;0.018;2024-02-14T03:40:14;1.33;;;0.60;;
42186;SDS011;27858;51.414;0.018;2024-02-14T03:42:41;3.40;;;0.60;;
42186;SDS011;27858;51.414;0.018;2024-02-14T03:45:08;2.85;;;0.82;;
42186;SDS011;27858;51.414;0.018;2024-02-14T03:47:35;0.55;;;0.30;;
42186;SDS011;27858;51.414;0.018;2024-02-14T03:50:07;0.70;;;0.47;;
42186;SDS011;27858;51.414;0.018;2024-02-14T03:52:34;1.23;;;0.85;;
42186;SDS011;27858;51.414;0.018;2024-02-14T03:55:02;1.00;;;0.60;;
42186;SDS011;27858;51.414;0.018;2024-02-14T03:57:29;2.20;;;0.90;;
42186;SDS011;27858;51.414;0.018;2024-02-14T03:59:57;1.48;;;0.85;;
42186;SDS011;27858;51.414;0.018;2024-02-14T04:02:25;9.65;;;2.17;;
42186;SDS011;27858;51.414;0.018;2024-02-14T04:04:54;1.58;;;0.65;;
42186;SDS011;27858;51.414;0.018;2024-02-14T04:07:22;2.28;;;0.50;;
42186;SDS011;27858;51.414;0.018;2024-02-14T04:09:50;2.90;;;1.05;;
42186;SDS011;27858;51.414;0.018;2024-02-14T04:12:16;3.42;;;1.08;;
42186;SDS011;27858;51.414;0.018;2024-02-14T04:14:44;2.35;;;0.98;;
42186;SDS011;27858;51.414;0.018;2024-02-14T04:17:10;1.15;;;0.60;;
42186;SDS011;27858;51.414;0.018;2024-02-14T04:19:39;3.63;;;0.75;;
42186;SDS011;27858;51.414;0.018;2024-02-14T04:22:06;3.55;;;1.15;;
42186;SDS011;27858;51.414;0.018;2024-02-14T04:24:34;14.20;;;1.25;;
42186;SDS011;27858;51.414;0.018;2024-02-14T04:27:01;2.28;;;1.00;;
42186;SDS011;27858;51.414;0.018;2024-02-14T04:29:31;3.88;;;1.38;;
42186;SDS011;27858;51.414;0.018;2024-02-14T04:32:00;6.38;;;1.70;;
42186;SDS011;27858;51.414;0.018;2024-02-14T04:34:26;6.35;;;1.13;;
42186;SDS011;27858;51.414;0.018;2024-02-14T04:36:54;2.33;;;0.93;;
42186;SDS011;27858;51.414;0.018;2024-02-14T04:39:20;0.82;;;0.60;;
42186;SDS011;27858;51.414;0.018;2024-02-14T04:41:47;2.30;;;0.80;;
42186;SDS011;27858;51.414;0.018;2024-02-14T04:44:27;5.35;;;1.25;;
42186;SDS011;27858;51.414;0.018;2024-02-14T04:46:54;0.80;;;0.45;;
42186;SDS011;27858;51.414;0.018;2024-02-14T04:49:22;1.55;;;0.57;;
42186;SDS011;27858;51.414;0.018;2024-02-14T04:51:49;1.25;;;0.50;;
42186;SDS011;27858;51.414;0.018;2024-02-14T04:54:20;0.82;;;0.68;;
42186;SDS011;27858;51.414;0.018;2024-02-14T04:56:47;4.18;;;0.77;;
42186;SDS011;27858;51.414;0.018;2024-02-14T04:59:18;7.00;;;0.70;;
42186;SDS011;27858;51.414;0.018;2024-02-14T05:01:45;4.88;;;0.60;;
42186;SDS011;27858;51.414;0.018;2024-02-14T05:04:12;3.05;;;1.00;;
42186;SDS011;27858;51.414;0.018;2024-02-14T05:06:39;2.72;;;1.13;;
42186;SDS011;27858;51.414;0.018;2024-02-14T05:09:06;1.38;;;0.50;;
42186;SDS011;27858;51.414;0.018;2024-02-14T05:11:33;3.97;;;0.90;;
42186;SDS011;27858;51.414;0.018;2024-02-14T05:14:00;1.10;;;0.40;;
42186;SDS011;27858;51.414;0.018;2024-02-14T05:16:28;0.52;;;0.35;;
42186;SDS011;27858;51.414;0.018;2024-02-14T05:18:55;0.88;;;0.47;;
42186;SDS011;27858;51.414;0.018;2024-02-14T05:21:22;1.17;;;0.60;;
42186;SDS011;27858;51.414;0.018;2024-02-14T05:23:49;1.58;;;0.40;;
42186;SDS011;27858;51.414;0.018;2024-02-14T05:26:17;1.08;;;0.70;;
42186;SDS011;27858;51.414;0.018;2024-02-14T05:28:43;0.70;;;0.50;;
42186;SDS011;27858;51.414;0.018;2024-02-14T05:31:10;0.43;;;0.40;;
42186;SDS011;27858;51.414;0.018;2024-02-14T05:33:37;1.55;;;0.57;;
42186;SDS011;27858;51.414;0.018;2024-02-14T05:36:04;0.60;;;0.40;;
42186;SDS011;27858;51.414;0.018;2024-02-14T05:38:32;1.58;;;0.40;;
42186;SDS011;27858;51.414;0.018;2024-02-14T05:41:00;1.23;;;0.45;;
42186;SDS011;27858;51.414;0.018;2024-02-14T05:43:27;1.20;;;0.60;;
42186;SDS011;27858;51.414;0.018;2024-02-14T05:45:54;1.52;;;0.70;;
42186;SDS011;27858;51.414;0.018;2024-02-14T05:48:21;1.48;;;0.60;;
42186;SDS011;27858;51.414;0.018;2024-02-14T05:50:49;0.40;;;0.40;;
42186;SDS011;27858;51.414;0.018;2024-02-14T05:53:15;0.75;;;0.57;;
42186;SDS011;27858;51.414;0.018;2024-02-14T05:55:42;0.80;;;0.77;;
42186;SDS011;27858;51.414;0.018;2024-02-14T05:58:09;2.35;;;0.85;;
42186;SDS011;27858;51.414;0.018;2024-02-14T06:00:39;1.30;;;0.60;;
42186;SDS011;27858;51.414;0.018;2024-02-14T06:03:06;1.73;;;0.63;;
42186;SDS011;27858;51.414;0.018;2024-02-14T06:05:34;0.45;;;0.40;;
42186;SDS011;27858;51.414;0.018;2024-02-14T06:08:01;0.63;;;0.50;;
42186;SDS011;27858;51.414;0.018;2024-02-14T06:10:29;3.20;;;0.77;;
42186;SDS011;27858;51.414;0.018;2024-02-14T06:12:56;1.70;;;0.70;;
42186;SDS011;27858;51.414;0.018;2024-02-14T06:15:23;3.15;;;1.25;;
42186;SDS011;27858;51.414;0.018;2024-02-14T06:17:50;1.95;;;0.95;;
42186;SDS011;27858;51.414;0.018;2024-02-14T06:20:17;1.58;;;0.93;;
42186;SDS011;27858;51.414;0.018;2024-02-14T06:22:44;1.92;;;0.60;;
42186;SDS011;27858;51.414;0.018;2024-02-14T06:25:22;0.75;;;0.68;;
42186;SDS011;27858;51.414;0.018;2024-02-14T06:27:49;1.05;;;0.60;;
42186;SDS011;27858;51.414;0.018;2024-02-14T06:30:16;2.35;;;0.80;;
42186;SDS011;27858;51.414;0.018;2024-02-14T06:32:44;1.67;;;1.10;;
42186;SDS011;27858;51.414;0.018;2024-02-14T06:35:11;1.63;;;0.60;;
42186;SDS011;27858;51.414;0.018;2024-02-14T06:37:41;0.73;;;0.60;;
42186;SDS011;27858;51.414;0.018;2024-02-14T06:40:21;1.15;;;0.63;;
42186;SDS011;27858;51.414;0.018;2024-02-14T06:42:48;0.85;;;0.50;;
42186;SDS011;27858;51.414;0.018;2024-02-14T06:45:17;2.15;;;0.45;;
42186;SDS011;27858;51.414;0.018;2024-02-14T06:47:44;1.58;;;0.60;;
42186;SDS011;27858;51.414;0.018;2024-02-14T06:50:11;0.52;;;0.40;;
42186;SDS011;27858;51.414;0.018;2024-02-14T06:52:37;4.15;;;0.68;;
42186;SDS011;27858;51.414;0.018;2024-02-14T06:55:04;0.20;;;0.20;;
42186;SDS011;27858;51.414;0.018;2024-02-14T06:57:31;1.10;;;0.60;;
42186;SDS011;27858;51.414;0.018;2024-02-14T06:59:58;0.28;;;0.20;;
42186;SDS011;27858;51.414;0.018;2024-02-14T07:02:25;2.67;;;0.90;;
42186;SDS011;27858;51.414;0.018;2024-02-14T07:04:54;4.80;;;0.90;;
42186;SDS011;27858;51.414;0.018;2024-02-14T07:07:21;0.65;;;0.30;;
42186;SDS011;27858;51.414;0.018;2024-02-14T07:09:48;1.30;;;0.47;;
42186;SDS011;27858;51.414;0.018;2024-02-14T07:12:15;1.42;;;1.10;;
42186;SDS011;27858;51.414;0.018;2024-02-14T07:14:42;0.40;;;0.40;;
42186;SDS011;27858;51.414;0.018;2024-02-14T07:17:09;0.40;;;0.30;;
42186;SDS011;27858;51.414;0.018;2024-02-14T07:19:36;1.35;;;0.77;;
42186;SDS011;27858;51.414;0.018;2024-02-14T07:22:05;2.10;;;1.20;;
42186;SDS011;27858;51.414;0.018;2024-02-14T07:24:31;1.52;;;1.00;;
42186;SDS011;27858;51.414;0.018;2024-02-14T07:26:58;2.53;;;1.42;;
42186;SDS011;27858;51.414;0.018;2024-02-14T07:29:25;1.17;;;0.50;;
42186;SDS011;27858;51.414;0.018;2024-02-14T07:31:53;0.75;;;0.70;;
42186;SDS011;27858;51.414;0.018;2024-02-14T07:34:20;2.28;;;1.10;;
42186;SDS011;27858;51.414;0.018;2024-02-14T07:36:48;2.72;;;1.77;;
42186;SDS011;27858;51.414;0.018;2024-02-14T07:39:15;4.20;;;1.90;;
42186;SDS011;27858;51.414;0.018;2024-02-14T07:41:42;1.48;;;1.00;;
42186;SDS011;27858;51.414;0.018;2024-02-14T07:44:09;2.85;;;1.77;;
42186;SDS011;27858;51.414;0.018;2024-02-14T07:46:35;3.10;;;1.42;;
42186;SDS011;27858;51.414;0.018;2024-02-14T07:49:02;2.75;;;0.77;;
42186;SDS011;27858;51.414;0.018;2024-02-14T07:51:30;2.45;;;1.23;;
42186;SDS011;27858;51.414;0.018;2024-02-14T07:54:06;1.95;;;0.73;;
42186;SDS011;27858;51.414;0.018;2024-02-14T07:56:33;0.82;;;0.52;;
42186;SDS011;27858;51.414;0.018;2024-02-14T07:59:00;1.95;;;1.10;;
42186;SDS011;27858;51.414;0.018;2024-02-14T08:01:27;1.52;;;1.05;;
42186;SDS011;27858;51.414;0.018;2024-02-14T08:03:54;3.20;;;1.35;;
42186;SDS011;27858;51.414;0.018;2024-02-14T08:06:21;2.67;;;0.80;;
42186;SDS011;27858;51.414;0.018;2024-02-14T08:08:49;4.57;;;1.17;;
42186;SDS011;27858;51.414;0.018;2024-02-14T08:11:20;1.05;;;0.80;;
42186;SDS011;27858;51.414;0.018;2024-02-14T08:13:47;1.10;;;1.00;;
42186;SDS011;27858;51.414;0.018;2024-02-14T08:16:14;1.88;;;1.10;;
42186;SDS011;27858;51.414;0.018;2024-02-14T08:18:41;3.53;;;1.38;;
42186;SDS011;27858;51.414;0.018;2024-02-14T08:21:10;1.17;;;0.80;;
42186;SDS011;27858;51.414;0.018;2024-02-14T08:23:38;1.33;;;0.70;;
42186;SDS011;27858;51.414;0.018;2024-02-14T08:26:06;2.05;;;0.45;;
42186;SDS011;27858;51.414;0.018;2024-02-14T08:28:37;2.72;;;1.00;;
42186;SDS011;27858;51.414;0.018;2024-02-14T08:31:10;4.53;;;1.65;;
42186;SDS011;27858;51.414;0.018;2024-02-14T08:33:38;1.23;;;0.52;;
42186;SDS011;27858;51.414;0.018;2024-02-14T08:36:05;3.75;;;1.52;;
42186;SDS011;27858;51.414;0.018;2024-02-14T08:38:33;1.33;;;0.93;;
42186;SDS011;27858;51.414;0.018;2024-02-14T08:41:04;0.73;;;0.52;;
42186;SDS011;27858;51.414;0.018;2024-02-14T08:43:31;0.50;;;0.50;;
42186;SDS011;27858;51.414;0.018;2024-02-14T08:45:58;5.50;;;2.20;;
42186;SDS011;27858;51.414;0.018;2024-02-14T08:48:25;12.18;;;6.40;;
42186;SDS011;27858;51.414;0.018;2024-02-14T08:50:53;6.70;;;3.60;;
42186;SDS011;27858;51.414;0.018;2024-02-14T08:53:20;4.15;;;2.08;;
42186;SDS011;27858;51.414;0.018;2024-02-14T08:55:48;4.30;;;1.80;;
42186;SDS011;27858;51.414;0.018;2024-02-14T08:58:15;2.00;;;1.38;;
42186;SDS011;27858;51.414;0.018;2024-02-14T09:00:42;2.60;;;0.90;;
42186;SDS011;27858;51.414;0.018;2024-02-14T09:03:09;7.15;;;3.40;;
42186;SDS011;27858;51.414;0.018;2024-02-14T09:05:37;2.75;;;1.40;;
42186;SDS011;27858;51.414;0.018;2024-02-14T09:08:05;3.88;;;1.98;;
42186;SDS011;27858;51.414;0.018;2024-02-14T09:10:32;3.35;;;2.08;;
42186;SDS011;27858;51.414;0.018;2024-02-14T09:12:58;10.90;;;5.88;;
42186;SDS011;27858;51.414;0.018;2024-02-14T09:15:25;1.83;;;1.23;;
42186;SDS011;27858;51.414;0.018;2024-02-14T09:17:53;1.13;;;0.80;;
42186;SDS011;27858;51.414;0.018;2024-02-14T09:20:20;5.03;;;2.40;;
42186;SDS011;27858;51.414;0.018;2024-02-14T09:22:47;1.52;;;0.75;;
42186;SDS011;27858;51.414;0.018;2024-02-14T09:25:15;1.65;;;0.90;;
42186;SDS011;27858;51.414;0.018;2024-02-14T09:27:42;3.30;;;1.58;;
42186;SDS011;27858;51.414;0.018;2024-02-14T09:30:10;8.50;;;1.33;;
42186;SDS011;27858;51.414;0.018;2024-02-14T09:32:53;2.95;;;1.08;;
42186;SDS011;27858;51.414;0.018;2024-02-14T09:35:20;1.27;;;0.60;;
42186;SDS011;27858;51.414;0.018;2024-02-14T09:37:47;1.63;;;0.70;;
42186;SDS011;27858;51.414;0.018;2024-02-14T09:40:14;2.90;;;0.88;;
42186;SDS011;27858;51.414;0.018;2024-02-14T09:42:44;0.98;;;0.50;;
42186;SDS011;27858;51.414;0.018;2024-02-14T09:45:17;0.68;;;0.25;;
42186;SDS011;27858;51.414;0.018;2024-02-14T09:47:51;2.42;;;0.65;;
42186;SDS011;27858;51.414;0.018;2024-02-14T09:50:19;1.52;;;0.60;;
42186;SDS011;27858;51.414;0.018;2024-02-14T09:52:50;4.90;;;1.73;;
42186;SDS011;27858;51.414;0.018;2024-02-14T09:55:18;1.40;;;1.00;;
42186;SDS011;27858;51.414;0.018;2024-02-14T09:57:45;2.92;;;1.95;;
42186;SDS011;27858;51.414;0.018;2024-02-14T10:00:14;3.83;;;0.90;;
42186;SDS011;27858;51.414;0.018;2024-02-14T10:02:41;2.85;;;1.00;;
42186;SDS011;27858;51.414;0.018;2024-02-14T10:05:08;1.73;;;1.20;;
42186;SDS011;27858;51.414;0.018;2024-02-14T10:07:42;2.33;;;1.50;;
42186;SDS011;27858;51.414;0.018;2024-02-14T10:10:10;0.65;;;0.47;;
42186;SDS011;27858;51.414;0.018;2024-02-14T10:12:38;0.50;;;0.50;;
42186;SDS011;27858;51.414;0.018;2024-02-14T10:15:07;1.23;;;0.85;;
42186;SDS011;27858;51.414;0.018;2024-02-14T10:17:35;3.17;;;1.00;;
42186;SDS011;27858;51.414;0.018;2024-02-14T10:20:02;0.60;;;0.30;;
42186;SDS011;27858;51.414;0.018;2024-02-14T10:22:35;0.90;;;0.60;;
42186;SDS011;27858;51.414;0.018;2024-02-14T10:25:04;3.33;;;0.80;;
42186;SDS011;27858;51.414;0.018;2024-02-14T10:27:39;1.23;;;0.60;;
42186;SDS011;27858;51.414;0.018;2024-02-14T10:30:07;1.55;;;0.57;;
42186;SDS011;27858;51.414;0.018;2024-02-14T10:32:37;0.15;;;0.15;;
42186;SDS011;27858;51.414;0.018;2024-02-14T10:35:07;7.50;;;1.38;;
42186;SDS011;27858;51.414;0.018;2024-02-14T10:37:35;1.02;;;0.40;;
42186;SDS011;27858;51.414;0.018;2024-02-14T10:40:02;2.13;;;0.57;;
42186;SDS011;27858;51.414;0.018;2024-02-14T10:42:30;0.35;;;0.35;;
42186;SDS011;27858;51.414;0.018;2024-02-14T10:44:58;0.68;;;0.60;;
42186;SDS011;27858;51.414;0.018;2024-02-14T10:47:34;0.95;;;0.63;;
42186;SDS011;27858;51.414;0.018;2024-02-14T10:50:03;0.30;;;0.20;;
42186;SDS011;27858;51.414;0.018;2024-02-14T10:52:33;0.55;;;0.40;;
42186;SDS011;27858;51.414;0.018;2024-02-14T10:55:06;1.00;;;0.55;;
42186;SDS011;27858;51.414;0.018;2024-02-14T10:57:35;1.75;;;0.57;;
42186;SDS011;27858;51.414;0.018;2024-02-14T11:00:09;0.30;;;0.30;;
42186;SDS011;27858;51.414;0.018;2024-02-14T11:02:40;0.90;;;0.45;;
42186;SDS011;27858;51.414;0.018;2024-02-14T11:05:12;0.68;;;0.52;;
42186;SDS011;27858;51.414;0.018;2024-02-14T11:07:45;0.28;;;0.28;;
42186;SDS011;27858;51.414;0.018;2024-02-14T11:10:14;0.57;;;0.30;;
42186;SDS011;27858;51.414;0.018;2024-02-14T11:12:42;0.40;;;0.30;;
42186;SDS011;27858;51.414;0.018;2024-02-14T11:15:20;0.20;;;0.17;;
42186;SDS011;27858;51.414;0.018;2024-02-14T11:17:49;0.35;;;0.30;;
42186;SDS011;27858;51.414;0.018;2024-02-14T11:20:21;1.38;;;0.63;;
42186;SDS011;27858;51.414;0.018;2024-02-14T11:23:05;0.50;;;0.50;;
42186;SDS011;27858;51.414;0.018;2024-02-14T11:25:37;1.25;;;0.38;;
42186;SDS011;27858;51.414;0.018;2024-02-14T11:28:14;1.73;;;0.40;;
42186;SDS011;27858;51.414;0.018;2024-02-14T11:30:43;0.98;;;0.40;;
42186;SDS011;27858;51.414;0.018;2024-02-14T11:33:23;0.52;;;0.40;;
42186;SDS011;27858;51.414;0.018;2024-02-14T11:35:51;1.05;;;0.50;;
42186;SDS011;27858;51.414;0.018;2024-02-14T11:38:21;1.08;;;0.55;;
42186;SDS011;27858;51.414;0.018;2024-02-14T11:40:50;1.45;;;0.68;;
42186;SDS011;27858;51.414;0.018;2024-02-14T11:43:21;1.20;;;0.70;;
42186;SDS011;27858;51.414;0.018;2024-02-14T11:45:48;1.30;;;0.50;;
42186;SDS011;27858;51.414;0.018;2024-02-14T11:48:23;2.13;;;0.70;;
42186;SDS011;27858;51.414;0.018;2024-02-14T11:50:53;1.20;;;0.63;;
42186;SDS011;27858;51.414;0.018;2024-02-14T11:53:22;2.05;;;0.85;;
42186;SDS011;27858;51.414;0.018;2024-02-14T11:55:51;1.67;;;0.70;;
42186;SDS011;27858;51.414;0.018;2024-02-14T11:58:18;3.40;;;1.40;;
42186;SDS011;27858;51.414;0.018;2024-02-14T12:00:46;0.63;;;0.43;;
42186;SDS011;27858;51.414;0.018;2024-02-14T12:03:18;0.75;;;0.32;;
42186;SDS011;27858;51.414;0.018;2024-02-14T12:05:43;1.70;;;0.70;;
42186;SDS011;27858;51.414;0.018;2024-02-14T12:08:11;2.25;;;0.47;;
42186;SDS011;27858;51.414;0.018;2024-02-14T12:10:39;2.38;;;1.13;;
42186;SDS011;27858;51.414;0.018;2024-02-14T12:13:12;1.42;;;0.50;;
42186;SDS011;27858;51.414;0.018;2024-02-14T12:15:47;3.83;;;0.57;;
42186;SDS011;27858;51.414;0.018;2024-02-14T12:18:16;1.45;;;0.63;;
42186;SDS011;27858;51.414;0.018;2024-02-14T12:20:47;1.92;;;0.90;;
42186;SDS011;27858;51.414;0.018;2024-02-14T12:23:21;3.65;;;0.50;;
42186;SDS011;27858;51.414;0.018;2024-02-14T12:25:53;2.17;;;1.30;;
42186;SDS011;27858;51.414;0.018;2024-02-14T12:28:20;1.90;;;0.90;;
42186;SDS011;27858;51.414;0.018;2024-02-14T12:30:48;1.00;;;0.40;;
42186;SDS011;27858;51.414;0.018;2024-02-14T12:33:18;1.63;;;0.70;;
42186;SDS011;27858;51.414;0.018;2024-02-14T12:35:46;2.47;;;0.80;;
42186;SDS011;27858;51.414;0.018;2024-02-14T12:38:16;0.80;;;0.45;;
42186;SDS011;27858;51.414;0.018;2024-02-14T12:40:44;0.60;;;0.40;;
42186;SDS011;27858;51.414;0.018;2024-02-14T12:43:12;3.03;;;0.93;;
42186;SDS011;27858;51.414;0.018;2024-02-14T12:45:40;3.03;;;0.95;;
42186;SDS011;27858;51.414;0.018;2024-02-14T12:48:08;1.48;;;0.65;;
42186;SDS011;27858;51.414;0.018;2024-02-14T12:50:37;0.93;;;0.55;;
42186;SDS011;27858;51.414;0.018;2024-02-14T12:53:04;0.95;;;0.40;;
42186;SDS011;27858;51.414;0.018;2024-02-14T12:55:32;3.00;;;0.80;;
42186;SDS011;27858;51.414;0.018;2024-02-14T12:57:59;1.42;;;0.60;;
42186;SDS011;27858;51.414;0.018;2024-02-14T13:00:27;1.80;;;0.80;;
42186;SDS011;27858;51.414;0.018;2024-02-14T13:02:56;1.85;;;0.52;;
42186;SDS011;27858;51.414;0.018;2024-02-14T13:05:23;1.13;;;0.90;;
42186;SDS011;27858;51.414;0.018;2024-02-14T13:07:52;1.00;;;0.43;;
42186;SDS011;27858;51.414;0.018;2024-02-14T13:10:19;2.03;;;0.93;;
42186;SDS011;27858;51.414;0.018;2024-02-14T13:12:46;1.52;;;0.77;;
42186;SDS011;27858;51.414;0.018;2024-02-14T13:15:13;0.80;;;0.68;;
42186;SDS011;27858;51.414;0.018;2024-02-14T13:17:40;3.75;;;0.70;;
42186;SDS011;27858;51.414;0.018;2024-02-14T13:20:07;1.15;;;0.70;;
42186;SDS011;27858;51.414;0.018;2024-02-14T13:22:36;1.52;;;0.77;;
42186;SDS011;27858;51.414;0.018;2024-02-14T13:25:03;5.40;;;0.93;;
42186;SDS011;27858;51.414;0.018;2024-02-14T13:27:31;0.70;;;0.52;;
42186;SDS011;27858;51.414;0.018;2024-02-14T13:30:00;1.90;;;0.50;;
42186;SDS011;27858;51.414;0.018;2024-02-14T13:32:30;1.20;;;0.60;;
42186;SDS011;27858;51.414;0.018;2024-02-14T13:34:57;0.95;;;0.55;;
42186;SDS011;27858;51.414;0.018;2024-02-14T13:37:25;1.77;;;0.50;;
42186;SDS011;27858;51.414;0.018;2024-02-14T13:39:52;0.88;;;0.38;;
42186;SDS011;27858;51.414;0.018;2024-02-14T13:42:19;0.60;;;0.55;;
42186;SDS011;27858;51.414;0.018;2024-02-14T13:44:46;0.63;;;0.35;;
42186;SDS011;27858;51.414;0.018;2024-02-14T13:47:13;0.75;;;0.30;;
42186;SDS011;27858;51.414;0.018;2024-02-14T13:49:44;0.77;;;0.37;;
42186;SDS011;27858;51.414;0.018;2024-02-14T13:52:12;1.65;;;0.40;;
42186;SDS011;27858;51.414;0.018;2024-02-14T13:54:39;1.85;;;0.40;;
42186;SDS011;27858;51.414;0.018;2024-02-14T13:57:06;4.15;;;0.60;;
42186;SDS011;27858;51.414;0.018;2024-02-14T13:59:33;1.35;;;0.75;;
42186;SDS011;27858;51.414;0.018;2024-02-14T14:02:00;0.70;;;0.60;;
42186;SDS011;27858;51.414;0.018;2024-02-14T14:04:27;0.60;;;0.47;;
42186;SDS011;27858;51.414;0.018;2024-02-14T14:06:54;1.05;;;0.50;;
42186;SDS011;27858;51.414;0.018;2024-02-14T14:09:21;0.40;;;0.30;;
42186;SDS011;27858;51.414;0.018;2024-02-14T14:11:49;1.17;;;0.40;;
42186;SDS011;27858;51.414;0.018;2024-02-14T14:14:17;1.08;;;0.40;;
42186;SDS011;27858;51.414;0.018;2024-02-14T14:16:45;0.98;;;0.63;;
42186;SDS011;27858;51.414;0.018;2024-02-14T14:19:13;3.90;;;0.65;;
42186;SDS011;27858;51.414;0.018;2024-02-14T14:21:41;0.43;;;0.32;;
42186;SDS011;27858;51.414;0.018;2024-02-14T14:24:08;0.70;;;0.50;;
42186;SDS011;27858;51.414;0.018;2024-02-14T14:26:35;2.42;;;1.35;;
42186;SDS011;27858;51.414;0.018;2024-02-14T14:29:02;1.50;;;0.63;;
42186;SDS011;27858;51.414;0.018;2024-02-14T14:31:28;2.13;;;0.50;;
42186;SDS011;27858;51.414;0.018;2024-02-14T14:33:56;0.95;;;0.55;;
42186;SDS011;27858;51.414;0.018;2024-02-14T14:36:24;1.77;;;0.75;;
42186;SDS011;27858;51.414;0.018;2024-02-14T14:38:52;0.40;;;0.30;;
42186;SDS011;27858;51.414;0.018;2024-02-14T14:41:21;1.20;;;0.60;;
42186;SDS011;27858;51.414;0.018;2024-02-14T14:43:48;0.40;;;0.40;;
42186;SDS011;27858;51.414;0.018;2024-02-14T14:46:15;3.70;;;1.42;;
42186;SDS011;27858;51.414;0.018;2024-02-14T14:48:46;2.40;;;1.40;;
42186;SDS011;27858;51.414;0.018;2024-02-14T14:51:14;5.88;;;2.10;;